Schneifelwetter: Wetterstation Hallschlag, 537 m . NN
Wetterdaten: Freitag, 05.08.2011
Datum Zeit Temp. A. Feuchte A. Luftdruck Regen Wind Richtung Richtung Sonnenschein Helligkeit T Regen Taupunkt Windchill
05.08.2011 00:09 15,1 C 92 % 1013 hPa 0,0 l/m 16,3 km/h (3 Bft) W-SW22.5 240 0 min 0 lux 0 min 13,8 C 10,9 C
05.08.2011 00:24 15,1 C 92 % 1013 hPa 0,0 l/m 13,9 km/h (3 Bft) SW22.5 230 0 min 0 lux 0 min 13,8 C 11,7 C
05.08.2011 00:39 15,0 C 93 % 1013 hPa 0,0 l/m 16,7 km/h (3 Bft) S-SW45 210 0 min 0 lux 0 min 13,9 C 10,7 C
05.08.2011 00:54 15,2 C 93 % 1013 hPa 0,0 l/m 17,4 km/h (3 Bft) S-SW45 210 0 min 0 lux 0 min 14,1 C 10,7 C
05.08.2011 01:09 15,2 C 94 % 1013 hPa 0,0 l/m 18,3 km/h (3 Bft) SW22.5 230 0 min 0 lux 0 min 14,2 C 10,5 C
05.08.2011 01:24 15,3 C 94 % 1013 hPa 0,0 l/m 17,6 km/h (3 Bft) SW22.5 225 0 min 0 lux 0 min 14,3 C 10,8 C
05.08.2011 01:39 15,4 C 94 % 1013 hPa 0,0 l/m 22,6 km/h (4 Bft) S-SW45 210 0 min 0 lux 0 min 14,4 C 9,7 C
05.08.2011 01:54 15,4 C 94 % 1013 hPa 0,0 l/m 21,5 km/h (4 Bft) SW45 235 0 min 0 lux 0 min 14,4 C 9,9 C
05.08.2011 02:09 15,4 C 94 % 1013 hPa 0,0 l/m 15,2 km/h (3 Bft) W-SW22.5 245 0 min 0 lux 0 min 14,4 C 11,6 C
05.08.2011 02:24 15,5 C 95 % 1013 hPa 0,0 l/m 15,9 km/h (3 Bft) SW45 215 0 min 0 lux 0 min 14,7 C 11,5 C
05.08.2011 02:39 15,5 C 95 % 1013 hPa 0,0 l/m 16,6 km/h (3 Bft) SW45 225 0 min 0 lux 0 min 14,7 C 11,3 C
05.08.2011 02:54 15,5 C 95 % 1012 hPa 0,0 l/m 12,2 km/h (2 Bft) SW45 225 0 min 0 lux 0 min 14,7 C 12,8 C
05.08.2011 03:09 15,5 C 95 % 1013 hPa 0,0 l/m 13,4 km/h (3 Bft) SW45 235 0 min 0 lux 0 min 14,7 C 12,3 C
05.08.2011 03:24 15,6 C 95 % 1013 hPa 0,0 l/m 20,5 km/h (4 Bft) W-SW45 240 0 min 0 lux 0 min 14,8 C 10,4 C
05.08.2011 03:39 15,6 C 95 % 1013 hPa 0,0 l/m 18,8 km/h (3 Bft) W-SW45 240 0 min 0 lux 0 min 14,8 C 10,8 C
05.08.2011 03:54 15,6 C 95 % 1012 hPa 0,0 l/m 17,3 km/h (3 Bft) SW67.5 220 0 min 0 lux 0 min 14,8 C 11,2 C
05.08.2011 04:09 15,6 C 95 % 1012 hPa 0,0 l/m 14,8 km/h (3 Bft) S-SW22.5 210 0 min 0 lux 0 min 14,8 C 12,0 C
05.08.2011 04:24 15,6 C 95 % 1012 hPa 0,0 l/m 17,6 km/h (3 Bft) SW22.5 230 0 min 0 lux 0 min 14,8 C 11,1 C
05.08.2011 04:39 15,6 C 95 % 1012 hPa 0,0 l/m 19,3 km/h (3 Bft) SW45 235 0 min 0 lux 0 min 14,8 C 10,7 C
05.08.2011 04:54 15,6 C 95 % 1012 hPa 0,0 l/m 20,4 km/h (4 Bft) SW45 225 0 min 0 lux 0 min 14,8 C 10,4 C
05.08.2011 05:09 15,6 C 95 % 1012 hPa 0,0 l/m 17,8 km/h (3 Bft) SW45 230 0 min 0 lux 0 min 14,8 C 11,1 C
05.08.2011 05:24 15,7 C 96 % 1012 hPa 0,0 l/m 12,5 km/h (3 Bft) SW22.5 235 0 min 0 lux 0 min 15,1 C 12,9 C
05.08.2011 05:39 15,7 C 96 % 1012 hPa 0,0 l/m 11,6 km/h (2 Bft) SW45 220 0 min 0 lux 0 min 15,1 C 13,2 C
05.08.2011 05:54 15,7 C 96 % 1012 hPa 0,0 l/m 12,5 km/h (3 Bft) S22.5 185 0 min 30 lux 0 min 15,1 C 12,9 C
05.08.2011 06:09 15,7 C 96 % 1012 hPa 3,9 l/m 9,2 km/h (2 Bft) S-SW22.5 200 0 min 140 lux 15 min 15,1 C 14,3 C
05.08.2011 06:24 15,7 C 96 % 1013 hPa 0,0 l/m 20,0 km/h (4 Bft) W22.5 260 0 min 561 lux 0 min 15,1 C 10,7 C
05.08.2011 06:39 15,7 C 96 % 1013 hPa 0,3 l/m 10,6 km/h (2 Bft) W-SW 250 0 min 2,11 klux 15 min 15,1 C 13,6 C
05.08.2011 06:54 15,7 C 96 % 1013 hPa 0,0 l/m 8,7 km/h (2 Bft) W-SW 245 0 min 4,26 klux 0 min 15,1 C 14,5 C
05.08.2011 07:09 15,8 C 95 % 1013 hPa 0,0 l/m 12,8 km/h (3 Bft) W-SW22.5 240 0 min 8,10 klux 0 min 15,0 C 12,9 C
05.08.2011 07:23 16,0 C 95 % 1013 hPa 0,0 l/m 15,2 km/h (3 Bft) W-SW22.5 250 0 min 8,04 klux 0 min 15,2 C 12,3 C
05.08.2011 07:38 16,0 C 94 % 1013 hPa 0,0 l/m 15,2 km/h (3 Bft) SW22.5 225 0 min 8,15 klux 0 min 15,0 C 12,3 C
05.08.2011 08:00 16,1 C 94 % 1013 hPa 0,0 l/m 16,0 km/h (3 Bft) W-SW22.5 245 0 min 10,2 klux 0 min 15,1 C 12,2 C
05.08.2011 08:15 15,9 C 93 % 1013 hPa 0,0 l/m 17,8 km/h (3 Bft) W-SW22.5 250 0 min 9,2 klux 0 min 14,8 C 11,5 C
05.08.2011 08:30 16,3 C 93 % 1013 hPa 0,0 l/m 17,6 km/h (3 Bft) W-SW67.5 250 0 min 16,8 klux 0 min 15,2 C 12,0 C
05.08.2011 08:44 16,7 C 92 % 1013 hPa 0,0 l/m 14,8 km/h (3 Bft) W-SW22.5 255 0 min 16,7 klux 0 min 15,4 C 13,3 C
05.08.2011 09:00 16,8 C 92 % 1013 hPa 0,0 l/m 9,6 km/h (2 Bft) SW22.5 230 0 min 21,0 klux 0 min 15,5 C 15,3 C
05.08.2011 09:15 17,2 C 90 % 1013 hPa 0,0 l/m 14,7 km/h (3 Bft) W-SW22.5 255 0 min 29,7 klux 0 min 15,5 C 13,9 C
05.08.2011 09:30 17,7 C 88 % 1013 hPa 0,0 l/m 14,6 km/h (3 Bft) W-SW22.5 250 15 min 66,4 klux 0 min 15,7 C 14,6 C
05.08.2011 09:45 18,5 C 85 % 1013 hPa 0,0 l/m 19,3 km/h (3 Bft) W22.5 260 15 min 63,6 klux 0 min 15,9 C 14,4 C
05.08.2011 10:00 19,1 C 83 % 1013 hPa 0,0 l/m 21,0 km/h (4 Bft) W-SW45 250 15 min 63,2 klux 0 min 16,1 C 14,9 C
05.08.2011 10:14 19,6 C 80 % 1013 hPa 0,0 l/m 16,1 km/h (3 Bft) W-SW45 250 14 min 64,7 klux 0 min 16,1 C 16,5 C
05.08.2011 10:30 20,3 C 77 % 1013 hPa 0,0 l/m 17,8 km/h (3 Bft) SW67.5 235 16 min 72,4 klux 0 min 16,1 C 17,0 C
05.08.2011 10:45 20,9 C 74 % 1013 hPa 0,0 l/m 16,4 km/h (3 Bft) W-SW22.5 255 15 min 81,2 klux 0 min 16,1 C 18,0 C
05.08.2011 11:00 20,7 C 75 % 1013 hPa 0,0 l/m 21,4 km/h (4 Bft) W45 260 15 min 74,2 klux 0 min 16,1 C 16,9 C
05.08.2011 11:15 21,1 C 73 % 1013 hPa 0,0 l/m 22,5 km/h (4 Bft) W67.5 260 15 min 78,8 klux 0 min 16,1 C 17,2 C
05.08.2011 11:30 21,7 C 69 % 1013 hPa 0,0 l/m 23,8 km/h (4 Bft) W45 260 15 min 75,1 klux 0 min 15,8 C 17,8 C
05.08.2011 11:44 21,8 C 70 % 1013 hPa 0,0 l/m 22,8 km/h (4 Bft) W22.5 270 14 min 76,4 klux 0 min 16,1 C 18,1 C
05.08.2011 12:00 21,8 C 68 % 1013 hPa 0,0 l/m 24,2 km/h (4 Bft) W-SW67.5 255 16 min 81,3 klux 0 min 15,6 C 17,9 C
05.08.2011 12:15 21,8 C 69 % 1013 hPa 0,0 l/m 22,1 km/h (4 Bft) W-SW45 250 15 min 81,8 klux 0 min 15,9 C 18,2 C
05.08.2011 12:30 22,0 C 68 % 1013 hPa 0,0 l/m 16,1 km/h (3 Bft) W-SW45 240 15 min 80,9 klux 0 min 15,8 C 19,5 C
05.08.2011 12:45 22,0 C 68 % 1013 hPa 0,0 l/m 25,1 km/h (4 Bft) W22.5 260 15 min 85,1 klux 0 min 15,8 C 18,1 C
05.08.2011 13:00 22,2 C 68 % 1013 hPa 0,0 l/m 24,9 km/h (4 Bft) W45 260 15 min 98,4 klux 0 min 16,0 C 18,4 C
05.08.2011 13:14 22,9 C 66 % 1013 hPa 0,0 l/m 27,7 km/h (4 Bft) W45 265 14 min 103 klux 0 min 16,2 C 19,0 C
05.08.2011 13:30 22,8 C 65 % 1013 hPa 0,0 l/m 22,0 km/h (4 Bft) W22.5 265 16 min 79,4 klux 0 min 15,9 C 19,5 C
05.08.2011 13:45 23,3 C 64 % 1013 hPa 0,0 l/m 23,0 km/h (4 Bft) W22.5 260 15 min 95,2 klux 0 min 16,1 C 20,1 C
05.08.2011 14:00 23,1 C 65 % 1013 hPa 0,0 l/m 25,3 km/h (4 Bft) W-SW45 250 0 min 50,7 klux 0 min 16,2 C 19,6 C
05.08.2011 14:15 22,5 C 66 % 1013 hPa 0,0 l/m 23,6 km/h (4 Bft) W-SW45 255 0 min 33,0 klux 0 min 15,8 C 18,9 C
05.08.2011 14:30 23,1 C 66 % 1013 hPa 0,0 l/m 20,4 km/h (4 Bft) W-SW67.5 245 15 min 101 klux 0 min 16,4 C 20,2 C
05.08.2011 14:44 23,7 C 65 % 1013 hPa 0,0 l/m 24,5 km/h (4 Bft) W-SW22.5 255 14 min 119 klux 0 min 16,7 C 20,5 C
05.08.2011 15:00 23,0 C 65 % 1013 hPa 0,0 l/m 24,9 km/h (4 Bft) W-SW22.5 245 0 min 54,3 klux 0 min 16,1 C 19,5 C
05.08.2011 15:15 22,9 C 68 % 1013 hPa 0,0 l/m 20,1 km/h (4 Bft) W22.5 260 15 min 110 klux 0 min 16,7 C 19,9 C
05.08.2011 15:30 23,8 C 65 % 1013 hPa 0,0 l/m 21,4 km/h (4 Bft) W-SW22.5 250 15 min 82,0 klux 0 min 16,8 C 20,9 C
05.08.2011 15:45 23,7 C 64 % 1012 hPa 0,0 l/m 22,1 km/h (4 Bft) W-SW67.5 240 15 min 77,1 klux 0 min 16,5 C 20,7 C
05.08.2011 16:00 23,3 C 66 % 1013 hPa 0,0 l/m 19,1 km/h (3 Bft) W-SW45 245 0 min 34,3 klux 0 min 16,6 C 20,6 C
05.08.2011 16:14 23,4 C 67 % 1012 hPa 0,0 l/m 18,3 km/h (3 Bft) W-SW22.5 250 14 min 66,6 klux 0 min 16,9 C 20,8 C
05.08.2011 16:30 23,6 C 65 % 1012 hPa 0,0 l/m 21,5 km/h (4 Bft) W-SW45 255 0 min 55,8 klux 0 min 16,6 C 20,7 C
05.08.2011 16:45 23,6 C 65 % 1012 hPa 0,0 l/m 17,9 km/h (3 Bft) W22.5 260 15 min 94,0 klux 0 min 16,6 C 21,2 C
05.08.2011 17:00 23,6 C 64 % 1012 hPa 0,0 l/m 16,5 km/h (3 Bft) W22.5 265 0 min 42,6 klux 0 min 16,4 C 21,4 C
05.08.2011 17:15 23,6 C 66 % 1012 hPa 0,0 l/m 15,1 km/h (3 Bft) W22.5 260 15 min 80,0 klux 0 min 16,9 C 21,6 C
05.08.2011 17:30 23,7 C 64 % 1012 hPa 0,0 l/m 14,0 km/h (3 Bft) W22.5 265 15 min 76,2 klux 0 min 16,5 C 21,9 C
05.08.2011 17:44 23,7 C 65 % 1012 hPa 0,0 l/m 15,6 km/h (3 Bft) W-SW 245 14 min 62,6 klux 0 min 16,7 C 21,6 C
05.08.2011 18:00 23,0 C 66 % 1012 hPa 0,0 l/m 9,2 km/h (2 Bft) W-SW 245 16 min 61,3 klux 0 min 16,3 C 22,2 C
05.08.2011 18:15 22,9 C 66 % 1012 hPa 0,0 l/m 6,1 km/h (2 Bft) W-SW 240 0 min 40,6 klux 0 min 16,2 C 22,9 C
05.08.2011 18:30 22,7 C 66 % 1012 hPa 0,0 l/m 7,5 km/h (2 Bft) W-SW 245 0 min 23,1 klux 0 min 16,0 C 22,3 C
05.08.2011 18:45 22,8 C 67 % 1012 hPa 0,0 l/m 0,0 km/h (0 Bft) W-SW 245 0 min 54,6 klux 0 min 16,3 C 22,8 C
05.08.2011 19:00 22,5 C 67 % 1012 hPa 0,0 l/m 0,0 km/h (0 Bft) W-SW 240 0 min 19,4 klux 0 min 16,1 C 22,5 C
05.08.2011 19:14 22,1 C 68 % 1012 hPa 0,0 l/m 0,0 km/h (0 Bft) W-SW 240 0 min 9,9 klux 0 min 15,9 C 22,1 C
05.08.2011 19:30 21,7 C 69 % 1012 hPa 0,0 l/m 0,0 km/h (0 Bft) W-SW 245 0 min 6,83 klux 0 min 15,8 C 21,7 C
05.08.2011 19:45 21,3 C 70 % 1012 hPa 0,0 l/m 10,4 km/h (2 Bft) W-SW 245 0 min 11,1 klux 0 min 15,6 C 20,0 C
05.08.2011 20:00 20,8 C 72 % 1012 hPa 0,0 l/m 10,8 km/h (2 Bft) S 170 0 min 9,8 klux 0 min 15,6 C 19,3 C
05.08.2011 20:15 19,9 C 74 % 1012 hPa 0,0 l/m 9,7 km/h (2 Bft) O-NO45 70 0 min 5,84 klux 0 min 15,1 C 18,6 C
05.08.2011 20:30 19,4 C 76 % 1012 hPa 0,0 l/m 0,0 km/h (0 Bft) O 85 0 min 6,65 klux 0 min 15,1 C 19,4 C
05.08.2011 20:44 18,9 C 78 % 1012 hPa 0,0 l/m 5,2 km/h (1 Bft) O 85 0 min 3,73 klux 0 min 15,0 C 18,9 C
05.08.2011 21:00 18,6 C 78 % 1012 hPa 0,0 l/m 0,0 km/h (0 Bft) O 85 0 min 1,87 klux 0 min 14,7 C 18,6 C
05.08.2011 21:15 18,2 C 79 % 1012 hPa 0,0 l/m 0,0 km/h (0 Bft) O 85 0 min 817 lux 0 min 14,5 C 18,2 C
05.08.2011 21:30 17,8 C 80 % 1012 hPa 0,0 l/m 0,0 km/h (0 Bft) O 85 0 min 309 lux 0 min 14,3 C 17,8 C
05.08.2011 21:45 17,6 C 82 % 1012 hPa 0,0 l/m 0,0 km/h (0 Bft) O 85 0 min 22 lux 0 min 14,5 C 17,6 C
05.08.2011 22:00 17,4 C 82 % 1012 hPa 0,0 l/m 0,0 km/h (0 Bft) O 85 0 min 1 lux 0 min 14,3 C 17,4 C
05.08.2011 22:14 17,2 C 83 % 1012 hPa 0,0 l/m 0,0 km/h (0 Bft) O 85 0 min 0 lux 0 min 14,3 C 17,2 C
05.08.2011 22:30 17,0 C 84 % 1012 hPa 0,0 l/m 0,0 km/h (0 Bft) O 85 0 min 0 lux 0 min 14,3 C 17,0 C
05.08.2011 22:45 16,8 C 86 % 1012 hPa 0,0 l/m 6,0 km/h (2 Bft) N22.5 5 0 min 0 lux 0 min 14,4 C 16,8 C
05.08.2011 23:00 16,7 C 86 % 1012 hPa 0,0 l/m 4,0 km/h (1 Bft) N-NO 15 0 min 0 lux 0 min 14,3 C 16,7 C
05.08.2011 23:15 16,6 C 86 % 1012 hPa 0,0 l/m 0,0 km/h (0 Bft) N-NO 15 0 min 0 lux 0 min 14,2 C 16,6 C
05.08.2011 23:30 16,3 C 86 % 1011 hPa 0,0 l/m 0,0 km/h (0 Bft) N-NO 15 0 min 0 lux 0 min 14,0 C 16,3 C
05.08.2011 23:44 16,2 C 88 % 1011 hPa 0,0 l/m 0,0 km/h (0 Bft) N-NO 15 0 min 0 lux 0 min 14,2 C 16,2 C
05.08.2011 23:54 16,1 C 88 % 1011 hPa 0,0 l/m 0,0 km/h (0 Bft) N-NO 25 0 min 0 lux 0 min 14,1 C 16,1 C
_ Min-Zeit 00:39 13:45 23:30 - 18:45 - - - - - 00:09 01:39
Minimum _ 15,0 C 64 % 1011 hPa - 0,0 km/h (0 Bft) - - - - - 13,8 C 9,7 C
_ Max-Zeit 15:30 05:24 00:09 06:09 13:14 - - 10:30 14:44 06:09 16:14 18:15
Maximum _ 23,8 C 96 % 1013 hPa 3,9 l/m 27,7 km/h
W (4 Bft)
- - 16 min 119 klux 15 min 16,9 C 22,9 C
Durchschnitt _ 18,9 C 81 % 1013 hPa #4,2 l/m 14,1 km/h (3 Bft) W-SW - #7:13 h 30,9 klux #30 min. 15,4 C 16,3 C